Shapleigh, Maine
Current Conditions -  °F | °C
As of 1:55 PM on Sunday 23 Nov 2014 (Local Time) from KSFM Reporting Station
Scattered Clouds Scattered Clouds  
Wind Chill: 57°   Ceiling: Unl
Heat Index: 57°   Visibility: 10mi
Dew Point: 37°   Wind: 9mph
Humidity: 48%   Direction: 230°SW
Pressure: 30.08"   Gusts: NA
Location:  43.54°N, 70.85°W
Report Text: KSFM 231855Z AUTO 23008KT 10SM SCT044 14/03 A3008 RMK AO1
Loading
Personal Weather Stations






























Interactive Weather Map New forecast layout! Learn more

10-Day Weather Forecast

Advertisements
Track Severe Weather on mobile